createdAt,value
2023-02-14T00:01:53.353Z,61.44
2023-02-14T00:04:19.980Z,61.00
2023-02-14T00:06:46.825Z,60.61
2023-02-14T00:09:15.908Z,60.21
2023-02-14T00:11:42.709Z,60.44
2023-02-14T00:14:28.370Z,61.34
2023-02-14T00:16:54.909Z,61.23
2023-02-14T00:19:21.817Z,61.95
2023-02-14T00:21:48.839Z,61.81
2023-02-14T00:24:18.224Z,62.07
2023-02-14T00:26:45.446Z,62.63
2023-02-14T00:29:14.301Z,61.99
2023-02-14T00:31:41.568Z,62.08
2023-02-14T00:34:08.789Z,62.58
2023-02-14T00:36:35.928Z,63.81
2023-02-14T00:39:07.477Z,62.20
2023-02-14T00:41:34.273Z,62.50
2023-02-14T00:44:00.945Z,61.74
2023-02-14T00:46:27.972Z,61.31
2023-02-14T00:48:54.632Z,61.50
2023-02-14T00:51:21.812Z,61.83
2023-02-14T00:53:49.160Z,60.71
2023-02-14T00:56:16.192Z,60.97
2023-02-14T00:58:42.806Z,61.66
2023-02-14T01:01:09.553Z,61.69
2023-02-14T01:03:36.866Z,61.31
2023-02-14T01:06:04.388Z,61.81
2023-02-14T01:08:31.346Z,64.62
2023-02-14T01:10:58.130Z,62.58
2023-02-14T01:13:24.778Z,62.64
2023-02-14T01:15:51.875Z,63.00
2023-02-14T01:18:19.195Z,62.05
2023-02-14T01:20:45.915Z,62.31
2023-02-14T01:23:12.404Z,62.01
2023-02-14T01:25:39.975Z,61.22
2023-02-14T01:28:06.659Z,61.27
2023-02-14T01:30:33.283Z,60.70
2023-02-14T01:32:59.819Z,60.79
2023-02-14T01:35:26.312Z,60.81
2023-02-14T01:37:52.786Z,62.33
2023-02-14T01:40:19.493Z,63.42
2023-02-14T01:42:45.976Z,62.37
2023-02-14T01:45:19.269Z,63.72
2023-02-14T01:47:47.666Z,63.03
2023-02-14T01:50:30.596Z,62.47
2023-02-14T01:53:03.291Z,61.64
2023-02-14T01:55:33.114Z,63.69
2023-02-14T01:58:15.662Z,63.46
2023-02-14T02:00:58.296Z,63.16
2023-02-14T02:03:30.174Z,62.53
2023-02-14T02:06:01.740Z,62.71
2023-02-14T02:08:28.338Z,63.87
2023-02-14T02:10:54.843Z,61.92
2023-02-14T02:13:22.295Z,62.73
2023-02-14T02:15:57.198Z,62.88
2023-02-14T02:18:23.590Z,62.64
2023-02-14T02:21:30.560Z,63.10
2023-02-14T02:24:14.401Z,62.14
2023-02-14T02:26:54.415Z,63.07
2023-02-14T02:29:38.446Z,63.41
2023-02-14T02:32:32.833Z,62.37
2023-02-14T02:35:17.585Z,62.62
2023-02-14T02:37:56.133Z,62.83
2023-02-14T02:40:41.332Z,63.37
2023-02-14T02:43:37.206Z,64.24
2023-02-14T02:46:30.352Z,63.61
2023-02-14T02:49:08.308Z,64.22
2023-02-14T02:52:04.725Z,62.87
2023-02-14T02:54:53.998Z,64.09
2023-02-14T02:57:27.450Z,64.21
2023-02-14T02:59:55.370Z,64.71
2023-02-14T03:02:33.672Z,65.44
2023-02-14T03:05:02.431Z,64.79
2023-02-14T03:07:34.946Z,66.78
2023-02-14T03:10:09.548Z,66.25
2023-02-14T03:12:39.045Z,63.96
2023-02-14T03:15:35.879Z,63.12
2023-02-14T03:18:43.864Z,62.70
2023-02-14T03:21:25.329Z,63.60
2023-02-14T03:24:15.517Z,63.28
2023-02-14T03:27:03.228Z,64.07
2023-02-14T03:29:53.307Z,63.70
2023-02-14T03:32:39.430Z,64.08
2023-02-14T03:35:08.842Z,62.79
2023-02-14T03:37:41.611Z,64.45
2023-02-14T03:40:17.075Z,64.55
2023-02-14T03:42:51.398Z,65.76
2023-02-14T03:45:24.110Z,63.58
2023-02-14T03:47:50.967Z,64.10
2023-02-14T03:50:19.544Z,62.78
2023-02-14T03:52:49.806Z,62.58
2023-02-14T03:55:20.245Z,62.94
2023-02-14T03:57:56.031Z,62.23
2023-02-14T04:00:22.733Z,62.13
2023-02-14T04:02:55.897Z,61.26
2023-02-14T04:05:25.115Z,61.73
2023-02-14T04:07:54.824Z,62.51
2023-02-14T04:10:21.798Z,62.44
2023-02-14T04:12:48.793Z,63.67
2023-02-14T04:15:16.117Z,63.25
2023-02-14T04:18:01.268Z,64.04
2023-02-14T04:20:28.258Z,63.92
2023-02-14T04:22:55.162Z,63.78
2023-02-14T04:25:22.424Z,64.33
2023-02-14T04:27:49.134Z,63.27
2023-02-14T04:30:18.101Z,62.87
2023-02-14T04:33:08.414Z,64.21
2023-02-14T04:35:35.450Z,62.91
2023-02-14T04:38:03.353Z,63.03
2023-02-14T04:40:30.131Z,62.28
2023-02-14T04:42:57.237Z,62.26
2023-02-14T04:45:23.918Z,62.26
2023-02-14T04:47:50.392Z,62.60
2023-02-14T04:50:17.519Z,62.25
2023-02-14T04:52:44.043Z,62.21
2023-02-14T04:55:10.716Z,63.11
2023-02-14T04:57:37.281Z,62.82
2023-02-14T05:00:04.823Z,62.68
2023-02-14T05:02:31.280Z,64.97
2023-02-14T05:04:57.768Z,64.66
2023-02-14T05:07:24.215Z,63.89
2023-02-14T05:09:50.746Z,62.84
2023-02-14T05:12:17.290Z,62.10
2023-02-14T05:14:43.768Z,62.79
2023-02-14T05:17:10.264Z,62.78
2023-02-14T05:19:36.748Z,63.57
2023-02-14T05:22:03.214Z,63.76
2023-02-14T05:24:29.825Z,64.86
2023-02-14T05:26:56.284Z,64.84
2023-02-14T05:29:22.748Z,63.35
2023-02-14T05:31:49.426Z,63.07
2023-02-14T05:34:16.035Z,63.20
2023-02-14T05:36:42.766Z,65.13
2023-02-14T05:39:09.276Z,63.14
2023-02-14T05:41:35.714Z,64.23
2023-02-14T05:44:02.238Z,63.97
2023-02-14T05:46:28.789Z,65.01
2023-02-14T05:48:55.268Z,65.12
2023-02-14T05:51:21.716Z,64.07
2023-02-14T05:53:48.207Z,62.54
2023-02-14T05:56:14.704Z,62.32
2023-02-14T05:58:41.313Z,61.82
2023-02-14T06:01:07.850Z,61.84
2023-02-14T06:03:34.306Z,62.34
2023-02-14T06:06:00.814Z,62.45
2023-02-14T06:08:27.281Z,61.87
2023-02-14T06:10:53.867Z,62.08
2023-02-14T06:13:20.345Z,62.05
2023-02-14T06:15:46.833Z,62.12
2023-02-14T06:18:13.319Z,61.73
2023-02-14T06:20:39.812Z,61.33
2023-02-14T06:23:06.287Z,61.89
2023-02-14T06:25:32.931Z,61.88
2023-02-14T06:27:59.733Z,61.30
2023-02-14T06:30:26.757Z,62.40
2023-02-14T06:32:53.374Z,62.68
2023-02-14T06:35:19.862Z,63.01
2023-02-14T06:37:46.400Z,62.36
2023-02-14T06:40:13.796Z,62.86
2023-02-14T06:42:40.373Z,62.82
2023-02-14T06:45:07.313Z,64.07
2023-02-14T06:47:35.140Z,63.38
2023-02-14T06:50:04.318Z,62.55
2023-02-14T06:52:32.190Z,62.38
2023-02-14T06:54:58.676Z,62.29
2023-02-14T06:57:25.206Z,62.29
2023-02-14T06:59:51.691Z,62.67
2023-02-14T07:02:18.299Z,62.29
2023-02-14T07:04:44.827Z,62.41
2023-02-14T07:07:11.304Z,62.33
2023-02-14T07:09:37.866Z,62.12
2023-02-14T07:12:04.433Z,63.11
2023-02-14T07:14:30.904Z,62.76
2023-02-14T07:16:57.364Z,62.56
2023-02-14T07:19:23.795Z,62.79
2023-02-14T07:21:50.290Z,63.50
2023-02-14T07:24:16.720Z,63.44
2023-02-14T07:26:43.166Z,63.20
2023-02-14T07:29:09.714Z,62.68
2023-02-14T07:31:36.289Z,63.14
2023-02-14T07:34:02.921Z,62.32
2023-02-14T07:36:29.392Z,62.05
2023-02-14T07:38:56.671Z,61.53
2023-02-14T07:41:23.484Z,61.76
2023-02-14T07:43:49.955Z,62.82
2023-02-14T07:46:17.545Z,62.05
2023-02-14T07:48:44.360Z,62.53
2023-02-14T07:51:11.284Z,62.42
2023-02-14T07:53:38.014Z,62.59
2023-02-14T07:56:04.614Z,62.19
2023-02-14T07:58:31.080Z,62.23
2023-02-14T08:00:58.059Z,62.78
2023-02-14T08:03:24.748Z,62.34
2023-02-14T08:05:57.275Z,63.17
2023-02-14T08:08:29.922Z,63.16
2023-02-14T08:10:56.636Z,63.76
2023-02-14T08:13:23.158Z,64.23
2023-02-14T08:16:04.856Z,63.85
2023-02-14T08:18:41.970Z,63.08
2023-02-14T08:21:10.449Z,64.13
2023-02-14T08:23:37.909Z,63.81
2023-02-14T08:26:04.794Z,63.05
2023-02-14T08:28:33.165Z,62.39
2023-02-14T08:31:00.523Z,62.33
2023-02-14T08:33:27.254Z,62.11
2023-02-14T08:35:53.760Z,62.58
2023-02-14T08:38:20.256Z,62.13
2023-02-14T08:40:46.805Z,62.69
2023-02-14T08:43:13.769Z,62.71
2023-02-14T08:45:40.857Z,62.58
2023-02-14T08:48:12.192Z,62.19
2023-02-14T08:50:39.002Z,61.90
2023-02-14T08:53:10.553Z,62.19
2023-02-14T08:55:37.387Z,62.79
2023-02-14T08:58:04.519Z,63.17
2023-02-14T09:00:32.375Z,62.91
2023-02-14T09:02:59.180Z,62.72
2023-02-14T09:05:26.558Z,62.88
2023-02-14T09:07:55.916Z,61.39
2023-02-14T09:10:23.109Z,62.04
2023-02-14T09:12:49.666Z,63.42
2023-02-14T09:15:16.190Z,63.38
2023-02-14T09:17:42.660Z,62.81
2023-02-14T09:20:10.706Z,62.87
2023-02-14T09:22:37.329Z,61.29
2023-02-14T09:25:04.421Z,61.60
2023-02-14T09:27:31.014Z,62.44
2023-02-14T09:29:57.531Z,61.64
2023-02-14T09:32:25.273Z,60.60
2023-02-14T09:35:10.457Z,61.00
2023-02-14T09:37:36.960Z,61.98
2023-02-14T09:40:04.663Z,61.30
2023-02-14T09:42:37.428Z,62.84
2023-02-14T09:45:13.330Z,62.03
2023-02-14T09:48:15.181Z,60.82
2023-02-14T09:51:07.888Z,61.03
2023-02-14T09:53:44.670Z,61.56
2023-02-14T09:56:37.318Z,61.69
2023-02-14T09:59:27.542Z,61.93
2023-02-14T10:02:19.084Z,62.75
2023-02-14T10:04:59.030Z,62.44
2023-02-14T10:07:50.308Z,61.18
2023-02-14T10:10:25.693Z,62.30
2023-02-14T10:13:18.447Z,62.71
2023-02-14T10:15:47.450Z,62.86
2023-02-14T10:18:21.713Z,62.79
2023-02-14T10:20:52.452Z,61.91
2023-02-14T10:23:30.662Z,62.99
2023-02-14T10:26:03.049Z,64.29
2023-02-14T10:28:56.018Z,62.29
2023-02-14T10:31:44.070Z,62.39
2023-02-14T10:34:22.775Z,62.22
2023-02-14T10:36:52.365Z,61.19
2023-02-14T10:39:21.808Z,60.91
2023-02-14T10:42:39.880Z,59.31
2023-02-14T10:45:28.848Z,60.26
2023-02-14T10:48:04.898Z,59.71
2023-02-14T10:50:39.666Z,60.63
2023-02-14T10:53:27.865Z,62.38
2023-02-14T10:56:01.979Z,60.58
2023-02-14T10:58:32.733Z,61.56
2023-02-14T11:01:11.290Z,61.75
2023-02-14T11:03:43.883Z,62.21
2023-02-14T11:06:10.988Z,61.88
2023-02-14T11:08:41.234Z,60.97
2023-02-14T11:11:44.422Z,60.26
2023-02-14T11:14:33.368Z,59.75
2023-02-14T11:17:00.845Z,60.12
2023-02-14T11:19:36.908Z,59.76
2023-02-14T11:22:04.418Z,60.51
2023-02-14T11:24:42.236Z,58.92
2023-02-14T11:27:11.804Z,59.07
2023-02-14T11:29:41.219Z,58.53
2023-02-14T11:32:23.983Z,59.86
2023-02-14T11:35:03.242Z,58.41
2023-02-14T11:37:44.563Z,61.36
2023-02-14T11:40:27.356Z,61.62
2023-02-14T11:43:02.256Z,59.80
2023-02-14T11:45:39.826Z,59.10
2023-02-14T11:48:22.301Z,59.17
2023-02-14T11:51:06.169Z,59.50
2023-02-14T11:53:52.006Z,59.43
2023-02-14T11:56:20.419Z,59.85
2023-02-14T11:58:58.472Z,60.06
2023-02-14T12:01:28.175Z,57.97
2023-02-14T12:03:56.018Z,60.01
2023-02-14T12:06:27.545Z,59.31
2023-02-14T12:09:42.668Z,60.17
2023-02-14T12:12:21.727Z,59.66
2023-02-14T12:14:48.415Z,60.28
2023-02-14T12:17:35.865Z,59.67
2023-02-14T12:20:07.830Z,60.30
2023-02-14T12:22:40.414Z,59.90
2023-02-14T12:25:21.412Z,59.20
2023-02-14T12:27:51.427Z,59.73
2023-02-14T12:30:20.591Z,59.07
2023-02-14T12:32:56.725Z,59.07
2023-02-14T12:35:48.147Z,58.01
2023-02-14T12:38:45.496Z,58.84
2023-02-14T12:41:24.454Z,58.90
2023-02-14T12:43:53.777Z,59.30
2023-02-14T12:46:42.107Z,58.87
2023-02-14T12:49:30.475Z,57.65
2023-02-14T12:52:18.212Z,57.56
2023-02-14T12:55:14.061Z,57.63
2023-02-14T12:57:54.516Z,58.08
2023-02-14T13:00:39.330Z,58.55
2023-02-14T13:03:33.732Z,59.20
2023-02-14T13:06:33.792Z,58.23
2023-02-14T13:09:14.699Z,58.05
2023-02-14T13:11:56.340Z,58.54
2023-02-14T13:14:41.881Z,59.94
2023-02-14T13:17:34.749Z,59.48
2023-02-14T13:20:19.886Z,59.18
2023-02-14T13:22:47.196Z,59.81
2023-02-14T13:25:37.187Z,60.25
2023-02-14T13:28:11.668Z,59.85
2023-02-14T13:30:38.859Z,58.91
2023-02-14T13:33:19.632Z,58.54
2023-02-14T13:35:46.303Z,57.82
2023-02-14T13:38:14.645Z,58.29
2023-02-14T13:40:41.443Z,59.36
2023-02-14T13:43:07.944Z,60.21
2023-02-14T13:45:40.374Z,59.89
2023-02-14T13:48:29.327Z,59.83
2023-02-14T13:50:58.710Z,61.21
2023-02-14T13:53:48.110Z,60.67
2023-02-14T13:56:17.497Z,61.28
2023-02-14T13:58:55.306Z,61.45
2023-02-14T14:01:32.448Z,60.71
2023-02-14T14:04:05.641Z,60.48
2023-02-14T14:07:04.655Z,60.02
2023-02-14T14:09:40.601Z,61.56
2023-02-14T14:12:27.117Z,59.93
2023-02-14T14:15:20.492Z,59.54
2023-02-14T14:17:50.034Z,60.49
2023-02-14T14:20:16.492Z,60.24
2023-02-14T14:22:51.213Z,61.17
2023-02-14T14:25:39.028Z,60.73
2023-02-14T14:28:13.465Z,60.95
2023-02-14T14:30:44.712Z,61.27
2023-02-14T14:33:31.289Z,62.07
2023-02-14T14:36:06.089Z,62.77
2023-02-14T14:38:34.930Z,61.49
2023-02-14T14:41:02.277Z,61.90
2023-02-14T14:43:34.330Z,61.54
2023-02-14T14:46:02.966Z,61.61
2023-02-14T14:48:32.829Z,63.20
2023-02-14T14:50:59.842Z,63.11
2023-02-14T14:53:28.454Z,63.33
2023-02-14T14:55:55.678Z,64.34
2023-02-14T14:58:36.412Z,62.21
2023-02-14T15:01:04.784Z,62.54
2023-02-14T15:03:31.351Z,62.36
2023-02-14T15:06:09.336Z,64.93
2023-02-14T15:08:36.098Z,63.73
2023-02-14T15:11:38.560Z,64.43
2023-02-14T15:14:13.863Z,63.29
2023-02-14T15:16:49.642Z,62.42
2023-02-14T15:19:19.090Z,63.91
2023-02-14T15:21:46.022Z,64.74
2023-02-14T15:24:17.522Z,64.81
2023-02-14T15:26:46.119Z,64.05
2023-02-14T15:29:20.796Z,63.76
2023-02-14T15:31:48.803Z,63.46
2023-02-14T15:34:15.474Z,63.18
2023-02-14T15:36:52.201Z,63.24
2023-02-14T15:39:19.383Z,63.36
2023-02-14T15:41:46.261Z,63.79
2023-02-14T15:44:21.259Z,64.59
2023-02-14T15:46:48.202Z,63.47
2023-02-14T15:49:19.021Z,63.68
2023-02-14T15:51:47.816Z,64.12
2023-02-14T15:54:43.527Z,64.15
2023-02-14T15:57:21.121Z,63.16
2023-02-14T15:59:48.647Z,63.29
2023-02-14T16:02:40.366Z,64.30
2023-02-14T16:05:19.036Z,65.51
2023-02-14T16:07:55.822Z,65.79
2023-02-14T16:10:26.534Z,64.61
2023-02-14T16:12:57.430Z,63.88
2023-02-14T16:15:29.111Z,63.18
2023-02-14T16:17:55.813Z,63.80
2023-02-14T16:20:45.227Z,63.17
2023-02-14T16:23:29.076Z,64.28
2023-02-14T16:25:59.033Z,63.62
2023-02-14T16:28:29.679Z,64.01
2023-02-14T16:30:57.982Z,64.29
2023-02-14T16:33:31.088Z,63.98
2023-02-14T16:36:16.014Z,64.26
2023-02-14T16:38:44.439Z,63.76
2023-02-14T16:41:22.353Z,63.71
2023-02-14T16:43:49.661Z,65.01
2023-02-14T16:46:19.191Z,64.91
2023-02-14T16:48:46.771Z,64.95
2023-02-14T16:51:14.175Z,65.54
2023-02-14T16:53:42.298Z,65.59
2023-02-14T16:56:23.433Z,66.48
2023-02-14T16:58:49.945Z,67.00
2023-02-14T17:01:16.451Z,66.15
2023-02-14T17:03:43.547Z,66.46
2023-02-14T17:06:12.029Z,66.95
2023-02-14T17:08:39.534Z,66.00
2023-02-14T17:11:06.145Z,66.09
2023-02-14T17:13:33.812Z,66.22
2023-02-14T17:16:01.622Z,65.85
2023-02-14T17:18:29.923Z,65.60
2023-02-14T17:20:56.532Z,65.54
2023-02-14T17:23:24.414Z,66.94
2023-02-14T17:25:50.946Z,66.61
2023-02-14T17:28:17.431Z,66.21
2023-02-14T17:30:43.934Z,66.13
2023-02-14T17:33:10.495Z,66.46
2023-02-14T17:35:38.043Z,67.15
2023-02-14T17:38:04.777Z,66.85
2023-02-14T17:40:31.684Z,67.13
2023-02-14T17:42:58.177Z,67.31
2023-02-14T17:45:24.664Z,66.70
2023-02-14T17:47:51.135Z,67.08
2023-02-14T17:50:18.217Z,67.04
2023-02-14T17:52:45.024Z,67.39
2023-02-14T17:55:12.218Z,66.98
2023-02-14T17:57:40.897Z,68.07
2023-02-14T18:00:11.378Z,66.78
2023-02-14T18:02:38.543Z,67.06
2023-02-14T18:05:07.336Z,66.92
2023-02-14T18:07:33.915Z,67.46
2023-02-14T18:10:00.409Z,67.67
2023-02-14T18:12:27.949Z,67.53
2023-02-14T18:14:56.141Z,66.75
2023-02-14T18:17:23.169Z,66.46
2023-02-14T18:19:49.844Z,66.49
2023-02-14T18:22:16.343Z,67.01
2023-02-14T18:24:42.841Z,67.38
2023-02-14T18:27:09.332Z,68.23
2023-02-14T18:29:36.005Z,68.58
2023-02-14T18:32:03.810Z,67.88
2023-02-14T18:34:30.303Z,68.12
2023-02-14T18:36:57.282Z,67.96
2023-02-14T18:39:23.792Z,68.13
2023-02-14T18:41:50.307Z,67.71
2023-02-14T18:44:17.973Z,67.86
2023-02-14T18:46:44.724Z,67.12
2023-02-14T18:49:13.284Z,67.08
2023-02-14T18:51:39.854Z,67.03
2023-02-14T18:54:06.766Z,68.15
2023-02-14T18:56:36.230Z,66.49
2023-02-14T18:59:06.519Z,66.31
2023-02-14T19:01:37.173Z,67.20
2023-02-14T19:04:06.426Z,68.09
2023-02-14T19:06:34.083Z,67.17
2023-02-14T19:09:01.760Z,68.10
2023-02-14T19:11:33.883Z,68.29
2023-02-14T19:14:02.401Z,68.59
2023-02-14T19:16:31.749Z,67.56
2023-02-14T19:18:59.056Z,68.43
2023-02-14T19:21:27.971Z,69.29
2023-02-14T19:23:59.380Z,69.43
2023-02-14T19:26:32.950Z,69.30
2023-02-14T19:29:01.954Z,69.03
2023-02-14T19:31:29.625Z,69.43
2023-02-14T19:33:56.685Z,71.42
2023-02-14T19:36:23.486Z,71.45
2023-02-14T19:38:52.622Z,72.25
2023-02-14T19:41:22.664Z,72.88
2023-02-14T19:43:51.539Z,73.64
2023-02-14T19:46:19.932Z,75.29
2023-02-14T19:48:47.358Z,73.92
2023-02-14T19:51:15.276Z,73.77
2023-02-14T19:53:42.350Z,72.69
2023-02-14T19:56:08.887Z,72.00
2023-02-14T19:58:36.490Z,72.44
2023-02-14T20:01:03.440Z,71.86
2023-02-14T20:03:30.678Z,73.78
2023-02-14T20:05:57.773Z,73.19
2023-02-14T20:08:24.284Z,73.58
2023-02-14T20:10:50.745Z,72.15
2023-02-14T20:13:17.255Z,72.24
2023-02-14T20:15:46.738Z,72.86
2023-02-14T20:18:13.316Z,73.56
2023-02-14T20:21:04.160Z,71.26
2023-02-14T20:23:32.385Z,71.16
2023-02-14T20:25:58.836Z,72.05
2023-02-14T20:28:25.398Z,72.39
2023-02-14T20:30:51.972Z,72.72
2023-02-14T20:33:18.662Z,72.66
2023-02-14T20:35:45.131Z,73.45
2023-02-14T20:38:12.208Z,72.46
2023-02-14T20:40:39.478Z,71.03
2023-02-14T20:43:06.134Z,71.40
2023-02-14T20:45:33.024Z,71.87
2023-02-14T20:48:03.699Z,70.87
2023-02-14T20:50:31.128Z,71.83
2023-02-14T20:52:57.675Z,70.87
2023-02-14T20:55:26.975Z,70.16
2023-02-14T20:57:53.906Z,69.96
2023-02-14T21:00:20.516Z,70.63
2023-02-14T21:02:47.012Z,71.18
2023-02-14T21:05:18.365Z,70.77
2023-02-14T21:07:44.895Z,71.75
2023-02-14T21:10:11.375Z,72.10
2023-02-14T21:12:38.657Z,71.72
2023-02-14T21:15:06.992Z,72.65
2023-02-14T21:17:33.963Z,73.25
2023-02-14T21:20:00.472Z,72.57
2023-02-14T21:22:27.050Z,70.98
2023-02-14T21:24:53.486Z,72.25
2023-02-14T21:27:19.991Z,72.40
2023-02-14T21:29:46.544Z,72.87
2023-02-14T21:32:13.132Z,73.12
2023-02-14T21:34:39.848Z,72.86
2023-02-14T21:37:06.368Z,71.96
2023-02-14T21:39:35.771Z,70.86
2023-02-14T21:42:02.419Z,71.02
2023-02-14T21:44:47.600Z,69.87
2023-02-14T21:47:14.224Z,70.94
2023-02-14T21:49:59.359Z,70.54
2023-02-14T21:52:25.802Z,70.58
2023-02-14T21:54:52.531Z,70.13
2023-02-14T21:57:19.064Z,69.94
2023-02-14T21:59:45.572Z,69.89
2023-02-14T22:02:12.327Z,69.98
2023-02-14T22:04:38.866Z,69.31
2023-02-14T22:07:05.452Z,69.01
2023-02-14T22:09:31.942Z,69.43
2023-02-14T22:11:58.379Z,69.97
2023-02-14T22:14:25.427Z,69.83
2023-02-14T22:16:52.035Z,69.65
2023-02-14T22:19:18.622Z,70.08
2023-02-14T22:21:45.334Z,70.55
2023-02-14T22:24:13.449Z,70.27
2023-02-14T22:26:43.045Z,70.96
2023-02-14T22:29:11.651Z,69.92
2023-02-14T22:31:40.992Z,69.62
2023-02-14T22:34:08.869Z,69.75
2023-02-14T22:36:35.387Z,70.54
2023-02-14T22:39:02.314Z,70.73
2023-02-14T22:41:29.021Z,70.65
2023-02-14T22:43:56.415Z,69.78
2023-02-14T22:46:28.031Z,69.34
2023-02-14T22:48:57.083Z,70.14
2023-02-14T22:51:26.632Z,69.70
2023-02-14T22:53:59.997Z,70.71
2023-02-14T22:56:28.951Z,69.47
2023-02-14T22:58:57.512Z,69.73
2023-02-14T23:01:25.101Z,71.13
2023-02-14T23:03:55.868Z,69.53
2023-02-14T23:06:23.937Z,70.71
2023-02-14T23:08:50.872Z,69.65
2023-02-14T23:11:22.527Z,70.39
2023-02-14T23:14:07.648Z,69.60
2023-02-14T23:16:53.181Z,69.77
2023-02-14T23:19:40.857Z,69.97
2023-02-14T23:22:12.577Z,68.90
2023-02-14T23:24:39.656Z,69.68
2023-02-14T23:27:07.684Z,69.11
2023-02-14T23:29:34.504Z,69.79
2023-02-14T23:32:01.018Z,71.08
2023-02-14T23:34:29.538Z,70.86
2023-02-14T23:36:56.203Z,69.93
2023-02-14T23:39:23.000Z,70.88
2023-02-14T23:41:49.898Z,70.55
2023-02-14T23:44:24.823Z,70.49
2023-02-14T23:46:53.399Z,69.82
2023-02-14T23:49:20.202Z,69.77
2023-02-14T23:51:47.936Z,70.74
2023-02-14T23:54:14.928Z,70.23
2023-02-14T23:56:41.755Z,68.95
2023-02-14T23:59:08.541Z,69.98
